AirNav   Bose ProFlight Series 2 Headset
 
 911 users online  

64MI Ti Heliport
Utica, Michigan, USA

GOING TO UTICA?


FAA INFORMATION EFFECTIVE 27 FEBRUARY 2020

Location

FAA Identifier: 64MI
Lat/Long: 42-39-53.0000N 083-00-44.0000W
42-39.883333N 083-00.733333W
42.6647222,-83.0122222
(estimated)
Elevation: 680 ft. / 207 m (estimated)
Variation: 07W (1995)
From city: 2 miles NE of UTICA, MI
Time zone: UTC -5 (UTC -4 during Daylight Saving Time)
Zip code: 48315

Heliport Operations

Heliport use: Private use. Permission required prior to landing
Activation date: 08/1998
Control tower: no
ARTCC: CLEVELAND CENTER
FSS: LANSING FLIGHT SERVICE STATION
Attendance: MON-FRI 0700-1700
Segmented circle: no

Heliport Communications

WX AWOS-3 at VLL (10 nm SW): 119.475 (248-288-4649)
WX ASOS at DET (15 nm S): PHONE 313-371-9696
WX ASOS at PTK (18 nm W): 125.025 (248-886-8551)

Nearby radio navigation aids

VOR radial/distance  VOR name  Freq  Var
YQGr348/26.2WINDSOR VOR/DME113.8006W
SVMr062/30.0SALEM VORTAC114.3003W
DXOr036/31.3DETROIT VOR/DME113.4006W
FNTr125/37.1FLINT VORTAC116.9006W

 
NDB name  Hdg/Dist  Freq  Var  ID
GROSSE ILE017/34.441907WRYS .-. -.-- ...

Heliport Services

Runway Information

Helipad H1

Dimensions: 12 x 12 ft. / 4 x 4 m
Surface: concrete
ROOFTOP.
Traffic pattern: leftleft

Heliport Ownership and Management from official FAA records

Ownership: Privately-owned
Owner: TI-COATING INC.
50500 CORPORATE DRIVE
UTICA, MI 48315
Phone (586) 726-1900
Manager: WILLIAM C ZICHICHI
50500 CORPORATE DRIVE
UTICA, MI 48315
Phone (586) 726-1900

Heliport Operational Statistics

Aircraft based on the field: 1
Helicopters: 1
    

Additional Remarks

A52-H1 12 FT POLE 20 FT N; 33 FT POWERLINE 100 FT E; 3 FT POWERLINE 200 FT S.
FOR CD CTC CLEVELAND ARTCC AT 440-774-0490.

Instrument Procedures

There are no published instrument procedures at 64MI.

Some nearby airports with instrument procedures:

57D - Ray Community Airport (7 nm NE)
D98 - Romeo State Airport (8 nm N)
KMTC - Selfridge Air National Guard Base (8 nm E)
KVLL - Oakland/Troy Airport (10 nm SW)
KDET - Coleman A Young Municipal Airport (15 nm S)
KPTK - Oakland County International Airport (18 nm W)
 
Loc | Ops | Rwys | IFR | FBO | Links
Com | Nav | Svcs | Stats | Notes
Area around 64MI (Ti Heliport)
 
Road maps at: MapQuest Bing Google
 
Aerial photo
No photo
 
Sectional chart

 
Airport distance calculator
Flying to Ti Heliport? Find the distance to fly.

From to 64MI

Sunrise and sunset
Times for 27-Feb-2020
 Local
(UTC-5)
 Zulu
(UTC)
Morning civil twilight06:4411:44
Sunrise07:1212:12
Sunset18:1823:18
Evening civil twilight18:4623:46

Current date and time
Zulu (UTC)  27-Feb-2020 12:17:43
Local (UTC-5)  27-Feb-2020 07:17:43
 
METAR
KMTC 
9nm E 
271156Z AUTO 29016G24KT 10SM -SN OVC035 M06/M10 A2982 RMK AO2 SNB41 SLP112 P0000 60000 70004 T10601099 11054 21072 53007 $
KVLL 
10nm SW 
271155Z AUTO 29014G25KT 10SM OVC038 M05/M10 A2987 RMK AO2 T10551105 11050 21067
KDET 
16nm S 
271153Z 29011G21KT 9SM -SN OVC035 M06/M12 A2986 RMK AO2 SNB48 SLP119 P0000 60000 70008 T10561117 11044 21067 51008
KPTK 
18nm W 
271153Z 29017G26KT 5SM -SN BLSN OVC040 M07/M12 A2981 RMK AO2 PK WND 30030/1111 SLP111 P0000 60000 70006 T10671122 11067 21083 51002 $
TAF
KMTC 
9nm E 
270900Z 2709/2815 29010G15KT 9999 BKN040 620405 520053 QNH2978INS BECMG 2711/2712 28012G18KT 9999 BKN040 620405 520053 QNH2980INS BECMG 2714/2715 29015G25KT 9999 SCT040 QNH2982INS TEMPO 2715/2723 29025G35KT 520004 BECMG 2723/2724 28012G18KT 9999 FEW040 530053 QNH2987INS BECMG 2802/2803 27012G18KT 9999 BKN040 620403 520053 QNH2981INS BECMG 2811/2812 27012KT 9999 BKN040 620403 520053 QNH2982INS TXM03/2717Z TNM07/2808Z LAST NO AMDS AFT 2709 NEXT 2712
KDET 
16nm S 
271120Z 2712/2812 30014G24KT P6SM -SHSN SCT035 BKN045 FM271400 29018G28KT P6SM BKN035 OVC045 FM271800 28022G32KT P6SM SCT025 OVC035 PROB30 2721/2801 1 1/2SM -SHSN OVC015 FM280100 27014G22KT P6SM BKN045 FM280400 26012KT P6SM SCT045
KPTK 
18nm W 
271120Z 2712/2812 30014G24KT P6SM -SHSN BKN035 FM271400 29018G28KT P6SM SCT025 OVC035 FM271800 28022G32KT P6SM SCT025 OVC035 PROB30 2721/2801 1 1/2SM -SHSN OVC015 FM280100 27014G22KT P6SM BKN045 FM280400 26012KT P6SM SCT045
NOTAMs
Click for the latest NOTAMs
NOTAMs are issued by the DoD/FAA and will open in a separate window not controlled by AirNav.

 

 
 

Would you like to see your business listed on this page?

 If your business provides an interesting product or service to pilots, flight crews, aircraft, or users of the Ti Heliport, you should consider listing it here.  To start the listing process, click on the button below
 
Add a business
 

Other Pages about Ti Heliport

Update a link
 
Copyright © AirNav, LLC. All rights reserved. Privacy Policy  Contact